sensor_id;sensor_type;location;lat;lon;timestamp;temperature;humidity
65374;SHT31;52070;53.760;9.678;2023-05-10T00:01:09;14.75;48.62
65374;SHT31;52070;53.760;9.678;2023-05-10T00:03:36;14.76;48.97
65374;SHT31;52070;53.760;9.678;2023-05-10T00:06:03;14.68;49.50
65374;SHT31;52070;53.760;9.678;2023-05-10T00:08:30;14.61;49.87
65374;SHT31;52070;53.760;9.678;2023-05-10T00:10:58;14.55;49.98
65374;SHT31;52070;53.760;9.678;2023-05-10T00:13:26;14.41;50.12
65374;SHT31;52070;53.760;9.678;2023-05-10T00:15:52;14.35;50.90
65374;SHT31;52070;53.760;9.678;2023-05-10T00:18:19;14.29;51.24
65374;SHT31;52070;53.760;9.678;2023-05-10T00:20:46;14.21;50.77
65374;SHT31;52070;53.760;9.678;2023-05-10T00:23:14;14.25;50.52
65374;SHT31;52070;53.760;9.678;2023-05-10T00:25:41;14.17;51.53
65374;SHT31;52070;53.760;9.678;2023-05-10T00:28:09;14.10;52.02
65374;SHT31;52070;53.760;9.678;2023-05-10T00:30:36;14.05;51.81
65374;SHT31;52070;53.760;9.678;2023-05-10T00:33:03;13.94;52.24
65374;SHT31;52070;53.760;9.678;2023-05-10T00:35:30;13.90;52.40
65374;SHT31;52070;53.760;9.678;2023-05-10T00:37:57;13.83;52.97
65374;SHT31;52070;53.760;9.678;2023-05-10T00:40:24;13.75;53.23
65374;SHT31;52070;53.760;9.678;2023-05-10T00:42:51;13.67;53.22
65374;SHT31;52070;53.760;9.678;2023-05-10T00:45:20;13.62;54.20
65374;SHT31;52070;53.760;9.678;2023-05-10T00:47:47;13.60;54.14
65374;SHT31;52070;53.760;9.678;2023-05-10T00:50:14;13.46;54.18
65374;SHT31;52070;53.760;9.678;2023-05-10T00:52:42;13.40;54.55
65374;SHT31;52070;53.760;9.678;2023-05-10T00:55:09;13.35;54.87
65374;SHT31;52070;53.760;9.678;2023-05-10T00:57:38;13.24;55.30
65374;SHT31;52070;53.760;9.678;2023-05-10T01:00:06;13.15;56.02
65374;SHT31;52070;53.760;9.678;2023-05-10T01:02:34;13.03;55.70
65374;SHT31;52070;53.760;9.678;2023-05-10T01:05:02;13.06;56.14
65374;SHT31;52070;53.760;9.678;2023-05-10T01:07:30;12.99;56.35
65374;SHT31;52070;53.760;9.678;2023-05-10T01:09:57;12.98;56.78
65374;SHT31;52070;53.760;9.678;2023-05-10T01:12:25;12.92;56.66
65374;SHT31;52070;53.760;9.678;2023-05-10T01:14:53;12.85;57.50
65374;SHT31;52070;53.760;9.678;2023-05-10T01:17:21;12.77;58.33
65374;SHT31;52070;53.760;9.678;2023-05-10T01:19:50;12.71;57.81
65374;SHT31;52070;53.760;9.678;2023-05-10T01:22:41;12.62;58.14
65374;SHT31;52070;53.760;9.678;2023-05-10T01:25:34;12.55;58.48
65374;SHT31;52070;53.760;9.678;2023-05-10T01:28:15;12.48;58.60
65374;SHT31;52070;53.760;9.678;2023-05-10T01:31:02;12.41;59.08
65374;SHT31;52070;53.760;9.678;2023-05-10T01:33:35;12.37;59.11
65374;SHT31;52070;53.760;9.678;2023-05-10T01:36:10;12.33;59.55
65374;SHT31;52070;53.760;9.678;2023-05-10T01:38:42;12.30;59.87
65374;SHT31;52070;53.760;9.678;2023-05-10T01:41:16;12.20;60.22
65374;SHT31;52070;53.760;9.678;2023-05-10T01:43:50;12.21;60.11
65374;SHT31;52070;53.760;9.678;2023-05-10T01:46:26;12.17;60.13
65374;SHT31;52070;53.760;9.678;2023-05-10T01:48:57;12.16;60.60
65374;SHT31;52070;53.760;9.678;2023-05-10T01:51:29;12.12;60.77
65374;SHT31;52070;53.760;9.678;2023-05-10T01:53:59;12.08;60.81
65374;SHT31;52070;53.760;9.678;2023-05-10T01:56:29;12.03;61.03
65374;SHT31;52070;53.760;9.678;2023-05-10T01:58:58;12.00;61.11
65374;SHT31;52070;53.760;9.678;2023-05-10T02:01:27;11.97;61.31
65374;SHT31;52070;53.760;9.678;2023-05-10T02:03:57;11.91;61.45
65374;SHT31;52070;53.760;9.678;2023-05-10T02:06:26;11.86;61.68
65374;SHT31;52070;53.760;9.678;2023-05-10T02:08:54;11.86;61.85
65374;SHT31;52070;53.760;9.678;2023-05-10T02:11:22;11.84;62.24
65374;SHT31;52070;53.760;9.678;2023-05-10T02:13:51;11.77;62.31
65374;SHT31;52070;53.760;9.678;2023-05-10T02:16:21;11.72;62.51
65374;SHT31;52070;53.760;9.678;2023-05-10T02:18:50;11.72;62.68
65374;SHT31;52070;53.760;9.678;2023-05-10T02:21:20;11.65;63.22
65374;SHT31;52070;53.760;9.678;2023-05-10T02:23:48;11.65;63.47
65374;SHT31;52070;53.760;9.678;2023-05-10T02:26:18;11.65;63.48
65374;SHT31;52070;53.760;9.678;2023-05-10T02:28:46;11.63;63.67
65374;SHT31;52070;53.760;9.678;2023-05-10T02:31:14;11.65;63.63
65374;SHT31;52070;53.760;9.678;2023-05-10T02:33:42;11.62;63.52
65374;SHT31;52070;53.760;9.678;2023-05-10T02:36:10;11.58;63.62
65374;SHT31;52070;53.760;9.678;2023-05-10T02:38:40;11.60;63.50
65374;SHT31;52070;53.760;9.678;2023-05-10T02:41:08;11.59;63.99
65374;SHT31;52070;53.760;9.678;2023-05-10T02:43:37;11.59;63.85
65374;SHT31;52070;53.760;9.678;2023-05-10T02:46:06;11.58;63.79
65374;SHT31;52070;53.760;9.678;2023-05-10T02:48:33;11.62;64.15
65374;SHT31;52070;53.760;9.678;2023-05-10T02:51:04;11.59;63.96
65374;SHT31;52070;53.760;9.678;2023-05-10T02:53:34;11.55;64.00
65374;SHT31;52070;53.760;9.678;2023-05-10T02:56:05;11.56;64.49
65374;SHT31;52070;53.760;9.678;2023-05-10T02:58:35;11.53;64.46
65374;SHT31;52070;53.760;9.678;2023-05-10T03:01:02;11.53;64.26
65374;SHT31;52070;53.760;9.678;2023-05-10T03:03:29;11.51;64.21
65374;SHT31;52070;53.760;9.678;2023-05-10T03:05:56;11.52;64.41
65374;SHT31;52070;53.760;9.678;2023-05-10T03:08:24;11.49;64.62
65374;SHT31;52070;53.760;9.678;2023-05-10T03:11:06;11.56;64.92
65374;SHT31;52070;53.760;9.678;2023-05-10T03:13:40;11.52;64.52
65374;SHT31;52070;53.760;9.678;2023-05-10T03:16:15;11.53;64.94
65374;SHT31;52070;53.760;9.678;2023-05-10T03:18:47;11.51;64.86
65374;SHT31;52070;53.760;9.678;2023-05-10T03:21:17;11.47;64.83
65374;SHT31;52070;53.760;9.678;2023-05-10T03:23:50;11.52;65.03
65374;SHT31;52070;53.760;9.678;2023-05-10T03:26:23;11.56;64.84
65374;SHT31;52070;53.760;9.678;2023-05-10T03:28:52;11.53;64.57
65374;SHT31;52070;53.760;9.678;2023-05-10T03:31:20;11.51;64.97
65374;SHT31;52070;53.760;9.678;2023-05-10T03:33:47;11.47;64.85
65374;SHT31;52070;53.760;9.678;2023-05-10T03:36:14;11.47;65.14
65374;SHT31;52070;53.760;9.678;2023-05-10T03:38:41;11.44;65.28
65374;SHT31;52070;53.760;9.678;2023-05-10T03:41:08;11.46;65.22
65374;SHT31;52070;53.760;9.678;2023-05-10T03:43:37;11.42;65.59
65374;SHT31;52070;53.760;9.678;2023-05-10T03:46:04;11.39;65.76
65374;SHT31;52070;53.760;9.678;2023-05-10T03:48:32;11.38;65.81
65374;SHT31;52070;53.760;9.678;2023-05-10T03:50:59;11.33;66.02
65374;SHT31;52070;53.760;9.678;2023-05-10T03:53:26;11.33;66.11
65374;SHT31;52070;53.760;9.678;2023-05-10T03:55:53;11.33;65.76
65374;SHT31;52070;53.760;9.678;2023-05-10T03:58:20;11.36;65.86
65374;SHT31;52070;53.760;9.678;2023-05-10T04:00:48;11.35;65.80
65374;SHT31;52070;53.760;9.678;2023-05-10T04:03:15;11.35;66.04
65374;SHT31;52070;53.760;9.678;2023-05-10T04:05:43;11.36;66.26
65374;SHT31;52070;53.760;9.678;2023-05-10T04:08:10;11.36;66.14
65374;SHT31;52070;53.760;9.678;2023-05-10T04:10:36;11.35;66.09
65374;SHT31;52070;53.760;9.678;2023-05-10T04:13:07;11.38;66.21
65374;SHT31;52070;53.760;9.678;2023-05-10T04:15:33;11.46;66.20
65374;SHT31;52070;53.760;9.678;2023-05-10T04:18:02;11.40;66.53
65374;SHT31;52070;53.760;9.678;2023-05-10T04:20:29;11.42;66.26
65374;SHT31;52070;53.760;9.678;2023-05-10T04:22:58;11.49;66.30
65374;SHT31;52070;53.760;9.678;2023-05-10T04:25:25;11.52;66.06
65374;SHT31;52070;53.760;9.678;2023-05-10T04:27:52;11.58;66.11
65374;SHT31;52070;53.760;9.678;2023-05-10T04:30:19;11.62;66.33
65374;SHT31;52070;53.760;9.678;2023-05-10T04:32:46;11.70;66.13
65374;SHT31;52070;53.760;9.678;2023-05-10T04:35:15;11.74;65.56
65374;SHT31;52070;53.760;9.678;2023-05-10T04:37:42;11.82;65.61
65374;SHT31;52070;53.760;9.678;2023-05-10T04:40:09;11.84;65.45
65374;SHT31;52070;53.760;9.678;2023-05-10T04:42:36;11.91;65.41
65374;SHT31;52070;53.760;9.678;2023-05-10T04:45:07;11.89;65.60
65374;SHT31;52070;53.760;9.678;2023-05-10T04:47:35;11.93;65.68
65374;SHT31;52070;53.760;9.678;2023-05-10T04:50:02;11.98;65.25
65374;SHT31;52070;53.760;9.678;2023-05-10T04:52:31;12.04;65.68
65374;SHT31;52070;53.760;9.678;2023-05-10T04:54:58;12.06;64.81
65374;SHT31;52070;53.760;9.678;2023-05-10T04:57:25;12.13;65.51
65374;SHT31;52070;53.760;9.678;2023-05-10T04:59:52;12.21;65.00
65374;SHT31;52070;53.760;9.678;2023-05-10T05:02:19;12.25;64.57
65374;SHT31;52070;53.760;9.678;2023-05-10T05:04:46;12.25;64.19
65374;SHT31;52070;53.760;9.678;2023-05-10T05:07:13;12.28;64.50
65374;SHT31;52070;53.760;9.678;2023-05-10T05:09:41;12.30;64.35
65374;SHT31;52070;53.760;9.678;2023-05-10T05:12:08;12.35;64.71
65374;SHT31;52070;53.760;9.678;2023-05-10T05:14:39;12.40;64.85
65374;SHT31;52070;53.760;9.678;2023-05-10T05:17:06;12.44;64.64
65374;SHT31;52070;53.760;9.678;2023-05-10T05:19:33;12.49;64.66
65374;SHT31;52070;53.760;9.678;2023-05-10T05:22:01;12.59;64.17
65374;SHT31;52070;53.760;9.678;2023-05-10T05:24:28;12.55;64.43
65374;SHT31;52070;53.760;9.678;2023-05-10T05:26:56;12.54;64.60
65374;SHT31;52070;53.760;9.678;2023-05-10T05:29:23;12.62;64.00
65374;SHT31;52070;53.760;9.678;2023-05-10T05:31:50;12.71;64.03
65374;SHT31;52070;53.760;9.678;2023-05-10T05:34:17;12.69;63.87
65374;SHT31;52070;53.760;9.678;2023-05-10T05:36:46;12.78;63.72
65374;SHT31;52070;53.760;9.678;2023-05-10T05:39:13;12.81;64.25
65374;SHT31;52070;53.760;9.678;2023-05-10T05:41:40;12.89;64.63
65374;SHT31;52070;53.760;9.678;2023-05-10T05:44:08;12.99;64.50
65374;SHT31;52070;53.760;9.678;2023-05-10T05:46:35;13.12;63.55
65374;SHT31;52070;53.760;9.678;2023-05-10T05:49:02;13.29;63.26
65374;SHT31;52070;53.760;9.678;2023-05-10T05:51:29;13.36;62.95
65374;SHT31;52070;53.760;9.678;2023-05-10T05:53:57;13.42;62.61
65374;SHT31;52070;53.760;9.678;2023-05-10T05:56:24;13.54;62.36
65374;SHT31;52070;53.760;9.678;2023-05-10T05:58:51;13.74;61.33
65374;SHT31;52070;53.760;9.678;2023-05-10T06:01:20;13.81;62.33
65374;SHT31;52070;53.760;9.678;2023-05-10T06:03:47;13.90;61.74
65374;SHT31;52070;53.760;9.678;2023-05-10T06:06:13;14.01;61.66
65374;SHT31;52070;53.760;9.678;2023-05-10T06:08:40;14.10;60.63
65374;SHT31;52070;53.760;9.678;2023-05-10T06:11:07;14.07;60.19
65374;SHT31;52070;53.760;9.678;2023-05-10T06:13:34;14.05;60.87
65374;SHT31;52070;53.760;9.678;2023-05-10T06:16:02;14.13;60.98
65374;SHT31;52070;53.760;9.678;2023-05-10T06:18:30;14.11;60.02
65374;SHT31;52070;53.760;9.678;2023-05-10T06:20:57;14.22;60.10
65374;SHT31;52070;53.760;9.678;2023-05-10T06:23:24;14.28;58.85
65374;SHT31;52070;53.760;9.678;2023-05-10T06:25:52;14.29;59.45
65374;SHT31;52070;53.760;9.678;2023-05-10T06:28:19;14.31;58.85
65374;SHT31;52070;53.760;9.678;2023-05-10T06:30:46;14.42;58.77
65374;SHT31;52070;53.760;9.678;2023-05-10T06:33:13;14.49;59.49
65374;SHT31;52070;53.760;9.678;2023-05-10T06:35:43;14.59;60.27
65374;SHT31;52070;53.760;9.678;2023-05-10T06:38:09;14.73;58.77
65374;SHT31;52070;53.760;9.678;2023-05-10T06:40:36;14.76;58.03
65374;SHT31;52070;53.760;9.678;2023-05-10T06:43:03;14.76;56.99
65374;SHT31;52070;53.760;9.678;2023-05-10T06:45:31;14.80;56.76
65374;SHT31;52070;53.760;9.678;2023-05-10T06:47:58;14.95;57.68
65374;SHT31;52070;53.760;9.678;2023-05-10T06:50:25;14.98;57.83
65374;SHT31;52070;53.760;9.678;2023-05-10T06:52:53;15.02;56.45
65374;SHT31;52070;53.760;9.678;2023-05-10T06:55:21;14.99;56.67
65374;SHT31;52070;53.760;9.678;2023-05-10T06:57:48;15.04;57.05
65374;SHT31;52070;53.760;9.678;2023-05-10T07:00:17;15.14;57.13
65374;SHT31;52070;53.760;9.678;2023-05-10T07:02:44;15.37;57.03
65374;SHT31;52070;53.760;9.678;2023-05-10T07:05:11;15.53;57.53
65374;SHT31;52070;53.760;9.678;2023-05-10T07:07:38;15.53;56.48
65374;SHT31;52070;53.760;9.678;2023-05-10T07:10:07;15.68;57.83
65374;SHT31;52070;53.760;9.678;2023-05-10T07:12:34;15.81;56.70
65374;SHT31;52070;53.760;9.678;2023-05-10T07:15:01;15.87;54.69
65374;SHT31;52070;53.760;9.678;2023-05-10T07:17:28;15.94;55.85
65374;SHT31;52070;53.760;9.678;2023-05-10T07:19:55;15.92;54.53
65374;SHT31;52070;53.760;9.678;2023-05-10T07:22:22;15.95;55.10
65374;SHT31;52070;53.760;9.678;2023-05-10T07:24:49;16.19;56.26
65374;SHT31;52070;53.760;9.678;2023-05-10T07:27:17;16.21;54.86
65374;SHT31;52070;53.760;9.678;2023-05-10T07:29:44;16.26;54.05
65374;SHT31;52070;53.760;9.678;2023-05-10T07:32:11;16.46;55.90
65374;SHT31;52070;53.760;9.678;2023-05-10T07:34:38;16.26;52.47
65374;SHT31;52070;53.760;9.678;2023-05-10T07:37:05;16.30;53.93
65374;SHT31;52070;53.760;9.678;2023-05-10T07:39:33;16.38;53.73
65374;SHT31;52070;53.760;9.678;2023-05-10T07:42:00;16.38;54.80
65374;SHT31;52070;53.760;9.678;2023-05-10T07:44:28;16.53;55.17
65374;SHT31;52070;53.760;9.678;2023-05-10T07:46:55;16.42;53.44
65374;SHT31;52070;53.760;9.678;2023-05-10T07:49:22;16.44;53.88
65374;SHT31;52070;53.760;9.678;2023-05-10T07:51:50;16.51;53.95
65374;SHT31;52070;53.760;9.678;2023-05-10T07:54:17;16.48;53.10
65374;SHT31;52070;53.760;9.678;2023-05-10T07:56:44;16.49;53.50
65374;SHT31;52070;53.760;9.678;2023-05-10T07:59:15;16.62;53.99
65374;SHT31;52070;53.760;9.678;2023-05-10T08:01:44;16.60;52.91
65374;SHT31;52070;53.760;9.678;2023-05-10T08:04:11;16.59;52.59
65374;SHT31;52070;53.760;9.678;2023-05-10T08:06:39;16.44;53.26
65374;SHT31;52070;53.760;9.678;2023-05-10T08:09:06;16.42;53.13
65374;SHT31;52070;53.760;9.678;2023-05-10T08:11:33;16.45;54.09
65374;SHT31;52070;53.760;9.678;2023-05-10T08:14:00;16.52;54.75
65374;SHT31;52070;53.760;9.678;2023-05-10T08:16:27;16.62;55.27
65374;SHT31;52070;53.760;9.678;2023-05-10T08:18:55;16.36;53.51
65374;SHT31;52070;53.760;9.678;2023-05-10T08:21:22;16.41;53.73
65374;SHT31;52070;53.760;9.678;2023-05-10T08:23:49;16.33;53.83
65374;SHT31;52070;53.760;9.678;2023-05-10T08:26:16;16.44;54.90
65374;SHT31;52070;53.760;9.678;2023-05-10T08:28:44;16.38;56.12
65374;SHT31;52070;53.760;9.678;2023-05-10T08:31:11;16.32;55.86
65374;SHT31;52070;53.760;9.678;2023-05-10T08:33:38;16.04;55.95
65374;SHT31;52070;53.760;9.678;2023-05-10T08:36:07;16.15;59.38
65374;SHT31;52070;53.760;9.678;2023-05-10T08:38:34;16.08;57.20
65374;SHT31;52070;53.760;9.678;2023-05-10T08:41:01;15.98;57.70
65374;SHT31;52070;53.760;9.678;2023-05-10T08:43:29;16.08;59.68
65374;SHT31;52070;53.760;9.678;2023-05-10T08:45:56;15.91;59.01
65374;SHT31;52070;53.760;9.678;2023-05-10T08:48:28;15.85;59.08
65374;SHT31;52070;53.760;9.678;2023-05-10T08:50:58;15.75;58.99
65374;SHT31;52070;53.760;9.678;2023-05-10T08:53:27;15.57;60.49
65374;SHT31;52070;53.760;9.678;2023-05-10T08:55:55;15.39;61.82
65374;SHT31;52070;53.760;9.678;2023-05-10T08:58:22;15.53;63.27
65374;SHT31;52070;53.760;9.678;2023-05-10T09:00:49;15.13;63.00
65374;SHT31;52070;53.760;9.678;2023-05-10T09:03:18;15.16;64.00
65374;SHT31;52070;53.760;9.678;2023-05-10T09:05:45;14.99;64.72
65374;SHT31;52070;53.760;9.678;2023-05-10T09:08:12;14.92;64.52
65374;SHT31;52070;53.760;9.678;2023-05-10T09:10:44;14.79;64.74
65374;SHT31;52070;53.760;9.678;2023-05-10T09:13:14;14.75;65.66
65374;SHT31;52070;53.760;9.678;2023-05-10T09:15:43;14.69;66.63
65374;SHT31;52070;53.760;9.678;2023-05-10T09:18:10;14.49;66.35
65374;SHT31;52070;53.760;9.678;2023-05-10T09:20:37;14.55;66.93
65374;SHT31;52070;53.760;9.678;2023-05-10T09:23:04;14.54;66.43
65374;SHT31;52070;53.760;9.678;2023-05-10T09:25:31;14.73;67.38
65374;SHT31;52070;53.760;9.678;2023-05-10T09:28:00;14.86;65.91
65374;SHT31;52070;53.760;9.678;2023-05-10T09:30:28;14.93;66.36
65374;SHT31;52070;53.760;9.678;2023-05-10T09:32:56;14.78;64.68
65374;SHT31;52070;53.760;9.678;2023-05-10T09:35:24;14.93;66.07
65374;SHT31;52070;53.760;9.678;2023-05-10T09:37:53;14.90;65.63
65374;SHT31;52070;53.760;9.678;2023-05-10T09:40:22;14.92;66.54
65374;SHT31;52070;53.760;9.678;2023-05-10T09:42:53;14.83;65.55
65374;SHT31;52070;53.760;9.678;2023-05-10T09:45:23;14.59;66.29
65374;SHT31;52070;53.760;9.678;2023-05-10T09:47:50;14.55;67.57
65374;SHT31;52070;53.760;9.678;2023-05-10T09:50:18;14.29;68.72
65374;SHT31;52070;53.760;9.678;2023-05-10T09:52:48;14.41;69.54
65374;SHT31;52070;53.760;9.678;2023-05-10T09:55:16;14.32;69.09
65374;SHT31;52070;53.760;9.678;2023-05-10T09:57:44;14.31;70.41
65374;SHT31;52070;53.760;9.678;2023-05-10T10:00:17;14.25;70.19
65374;SHT31;52070;53.760;9.678;2023-05-10T10:02:47;14.28;72.04
65374;SHT31;52070;53.760;9.678;2023-05-10T10:05:15;14.14;71.84
65374;SHT31;52070;53.760;9.678;2023-05-10T10:07:42;14.10;73.39
65374;SHT31;52070;53.760;9.678;2023-05-10T10:10:09;14.01;73.89
65374;SHT31;52070;53.760;9.678;2023-05-10T10:12:40;13.91;75.30
65374;SHT31;52070;53.760;9.678;2023-05-10T10:15:08;13.90;75.74
65374;SHT31;52070;53.760;9.678;2023-05-10T10:17:36;13.94;76.49
65374;SHT31;52070;53.760;9.678;2023-05-10T10:20:07;13.94;76.94
65374;SHT31;52070;53.760;9.678;2023-05-10T10:22:34;13.88;76.80
65374;SHT31;52070;53.760;9.678;2023-05-10T10:25:02;13.98;79.00
65374;SHT31;52070;53.760;9.678;2023-05-10T10:27:36;13.95;78.62
65374;SHT31;52070;53.760;9.678;2023-05-10T10:30:15;13.87;79.28
65374;SHT31;52070;53.760;9.678;2023-05-10T10:35:42;13.63;80.41
65374;SHT31;52070;53.760;9.678;2023-05-10T10:38:12;13.49;79.88
65374;SHT31;52070;53.760;9.678;2023-05-10T10:40:39;13.49;81.57
65374;SHT31;52070;53.760;9.678;2023-05-10T10:43:22;13.56;81.90
65374;SHT31;52070;53.760;9.678;2023-05-10T10:46:13;13.47;82.06
65374;SHT31;52070;53.760;9.678;2023-05-10T10:48:41;13.36;82.28
65374;SHT31;52070;53.760;9.678;2023-05-10T10:51:14;13.19;82.98
65374;SHT31;52070;53.760;9.678;2023-05-10T10:53:42;13.18;83.39
65374;SHT31;52070;53.760;9.678;2023-05-10T10:56:10;13.33;84.15
65374;SHT31;52070;53.760;9.678;2023-05-10T10:58:39;13.49;84.63
65374;SHT31;52070;53.760;9.678;2023-05-10T11:01:14;13.69;84.24
65374;SHT31;52070;53.760;9.678;2023-05-10T11:03:54;13.75;84.22
65374;SHT31;52070;53.760;9.678;2023-05-10T11:06:29;13.81;84.13
65374;SHT31;52070;53.760;9.678;2023-05-10T11:08:57;13.63;83.44
65374;SHT31;52070;53.760;9.678;2023-05-10T11:11:24;13.64;84.52
65374;SHT31;52070;53.760;9.678;2023-05-10T11:13:51;13.56;84.56
65374;SHT31;52070;53.760;9.678;2023-05-10T11:16:19;13.32;84.06
65374;SHT31;52070;53.760;9.678;2023-05-10T11:18:55;13.06;84.03
65374;SHT31;52070;53.760;9.678;2023-05-10T11:21:23;13.08;85.07
65374;SHT31;52070;53.760;9.678;2023-05-10T11:23:53;13.03;85.42
65374;SHT31;52070;53.760;9.678;2023-05-10T11:26:23;12.98;85.85
65374;SHT31;52070;53.760;9.678;2023-05-10T11:28:53;13.09;86.60
65374;SHT31;52070;53.760;9.678;2023-05-10T11:31:22;12.92;85.99
65374;SHT31;52070;53.760;9.678;2023-05-10T11:33:50;12.88;86.90
65374;SHT31;52070;53.760;9.678;2023-05-10T11:36:18;12.99;87.39
65374;SHT31;52070;53.760;9.678;2023-05-10T11:38:45;12.77;87.49
65374;SHT31;52070;53.760;9.678;2023-05-10T11:41:17;12.64;88.38
65374;SHT31;52070;53.760;9.678;2023-05-10T11:43:45;12.78;89.10
65374;SHT31;52070;53.760;9.678;2023-05-10T11:46:15;12.85;89.57
65374;SHT31;52070;53.760;9.678;2023-05-10T11:48:42;12.92;89.68
65374;SHT31;52070;53.760;9.678;2023-05-10T11:51:10;13.10;89.68
65374;SHT31;52070;53.760;9.678;2023-05-10T11:53:38;13.18;89.76
65374;SHT31;52070;53.760;9.678;2023-05-10T11:56:14;13.32;89.82
65374;SHT31;52070;53.760;9.678;2023-05-10T11:58:41;13.29;89.69
65374;SHT31;52070;53.760;9.678;2023-05-10T12:01:08;13.49;89.71
65374;SHT31;52070;53.760;9.678;2023-05-10T12:03:36;13.56;89.46
65374;SHT31;52070;53.760;9.678;2023-05-10T12:06:04;13.60;88.96
65374;SHT31;52070;53.760;9.678;2023-05-10T12:08:31;13.44;88.50
65374;SHT31;52070;53.760;9.678;2023-05-10T12:11:05;13.52;88.99
65374;SHT31;52070;53.760;9.678;2023-05-10T12:13:37;13.42;89.11
65374;SHT31;52070;53.760;9.678;2023-05-10T12:16:12;13.47;89.31
65374;SHT31;52070;53.760;9.678;2023-05-10T12:18:40;13.32;89.15
65374;SHT31;52070;53.760;9.678;2023-05-10T12:21:09;13.50;89.81
65374;SHT31;52070;53.760;9.678;2023-05-10T12:23:36;13.62;89.79
65374;SHT31;52070;53.760;9.678;2023-05-10T12:26:03;13.74;89.47
65374;SHT31;52070;53.760;9.678;2023-05-10T12:28:31;13.71;89.21
65374;SHT31;52070;53.760;9.678;2023-05-10T12:31:00;13.75;89.20
65374;SHT31;52070;53.760;9.678;2023-05-10T12:33:35;13.78;89.28
65374;SHT31;52070;53.760;9.678;2023-05-10T12:36:02;13.95;89.25
65374;SHT31;52070;53.760;9.678;2023-05-10T12:38:32;14.25;89.39
65374;SHT31;52070;53.760;9.678;2023-05-10T12:41:01;14.15;88.58
65374;SHT31;52070;53.760;9.678;2023-05-10T12:43:28;14.18;88.49
65374;SHT31;52070;53.760;9.678;2023-05-10T12:45:55;14.25;88.42
65374;SHT31;52070;53.760;9.678;2023-05-10T12:48:24;14.44;88.51
65374;SHT31;52070;53.760;9.678;2023-05-10T12:50:51;14.69;88.42
65374;SHT31;52070;53.760;9.678;2023-05-10T12:53:18;14.83;87.88
65374;SHT31;52070;53.760;9.678;2023-05-10T12:55:45;14.55;86.63
65374;SHT31;52070;53.760;9.678;2023-05-10T12:58:12;14.68;87.24
65374;SHT31;52070;53.760;9.678;2023-05-10T13:00:39;14.99;87.53
65374;SHT31;52070;53.760;9.678;2023-05-10T13:03:06;15.22;86.95
65374;SHT31;52070;53.760;9.678;2023-05-10T13:05:34;15.36;85.86
65374;SHT31;52070;53.760;9.678;2023-05-10T13:08:01;15.61;85.47
65374;SHT31;52070;53.760;9.678;2023-05-10T13:10:28;15.84;85.54
65374;SHT31;52070;53.760;9.678;2023-05-10T13:12:56;16.04;84.76
65374;SHT31;52070;53.760;9.678;2023-05-10T13:15:23;16.26;84.38
65374;SHT31;52070;53.760;9.678;2023-05-10T13:17:50;16.45;83.80
65374;SHT31;52070;53.760;9.678;2023-05-10T13:20:17;16.44;82.68
65374;SHT31;52070;53.760;9.678;2023-05-10T13:22:45;16.52;82.80
65374;SHT31;52070;53.760;9.678;2023-05-10T13:25:12;16.26;82.72
65374;SHT31;52070;53.760;9.678;2023-05-10T13:27:40;16.21;82.61
65374;SHT31;52070;53.760;9.678;2023-05-10T13:30:07;16.28;82.26
65374;SHT31;52070;53.760;9.678;2023-05-10T13:32:35;16.12;81.67
65374;SHT31;52070;53.760;9.678;2023-05-10T13:35:03;15.90;82.63
65374;SHT31;52070;53.760;9.678;2023-05-10T13:37:30;15.67;82.86
65374;SHT31;52070;53.760;9.678;2023-05-10T13:39:59;15.55;82.64
65374;SHT31;52070;53.760;9.678;2023-05-10T13:42:25;15.53;83.36
65374;SHT31;52070;53.760;9.678;2023-05-10T13:44:52;15.61;83.93
65374;SHT31;52070;53.760;9.678;2023-05-10T13:47:19;15.50;83.99
65374;SHT31;52070;53.760;9.678;2023-05-10T13:49:47;15.75;85.04
65374;SHT31;52070;53.760;9.678;2023-05-10T13:52:14;15.97;84.37
65374;SHT31;52070;53.760;9.678;2023-05-10T13:54:41;15.83;83.15
65374;SHT31;52070;53.760;9.678;2023-05-10T13:57:10;15.84;82.91
65374;SHT31;52070;53.760;9.678;2023-05-10T13:59:39;15.78;83.58
65374;SHT31;52070;53.760;9.678;2023-05-10T14:02:06;16.04;84.38
65374;SHT31;52070;53.760;9.678;2023-05-10T14:04:33;16.11;83.80
65374;SHT31;52070;53.760;9.678;2023-05-10T14:07:01;15.83;82.38
65374;SHT31;52070;53.760;9.678;2023-05-10T14:09:28;15.85;82.95
65374;SHT31;52070;53.760;9.678;2023-05-10T14:11:55;15.83;82.91
65374;SHT31;52070;53.760;9.678;2023-05-10T14:14:24;15.97;82.68
65374;SHT31;52070;53.760;9.678;2023-05-10T14:16:51;16.06;82.87
65374;SHT31;52070;53.760;9.678;2023-05-10T14:19:18;16.14;83.07
65374;SHT31;52070;53.760;9.678;2023-05-10T14:21:45;16.11;81.36
65374;SHT31;52070;53.760;9.678;2023-05-10T14:24:12;16.18;81.72
65374;SHT31;52070;53.760;9.678;2023-05-10T14:26:39;16.24;81.40
65374;SHT31;52070;53.760;9.678;2023-05-10T14:29:06;16.12;80.66
65374;SHT31;52070;53.760;9.678;2023-05-10T14:31:34;16.05;80.97
65374;SHT31;52070;53.760;9.678;2023-05-10T14:34:01;15.95;80.75
65374;SHT31;52070;53.760;9.678;2023-05-10T14:36:28;15.98;81.75
65374;SHT31;52070;53.760;9.678;2023-05-10T14:38:55;16.01;81.97
65374;SHT31;52070;53.760;9.678;2023-05-10T14:41:22;15.92;80.63
65374;SHT31;52070;53.760;9.678;2023-05-10T14:43:50;16.19;82.77
65374;SHT31;52070;53.760;9.678;2023-05-10T14:46:17;16.30;81.58
65374;SHT31;52070;53.760;9.678;2023-05-10T14:48:46;16.29;79.96
65374;SHT31;52070;53.760;9.678;2023-05-10T14:51:13;16.41;79.85
65374;SHT31;52070;53.760;9.678;2023-05-10T14:53:40;16.52;79.79
65374;SHT31;52070;53.760;9.678;2023-05-10T14:56:07;16.44;79.47
65374;SHT31;52070;53.760;9.678;2023-05-10T14:58:33;16.15;79.52
65374;SHT31;52070;53.760;9.678;2023-05-10T15:01:01;16.29;80.18
65374;SHT31;52070;53.760;9.678;2023-05-10T15:03:28;16.45;80.67
65374;SHT31;52070;53.760;9.678;2023-05-10T15:05:56;16.57;80.14
65374;SHT31;52070;53.760;9.678;2023-05-10T15:08:24;16.53;79.29
65374;SHT31;52070;53.760;9.678;2023-05-10T15:10:51;16.48;78.66
65374;SHT31;52070;53.760;9.678;2023-05-10T15:13:18;16.52;79.51
65374;SHT31;52070;53.760;9.678;2023-05-10T15:15:45;16.36;78.82
65374;SHT31;52070;53.760;9.678;2023-05-10T15:18:12;16.41;79.02
65374;SHT31;52070;53.760;9.678;2023-05-10T15:20:39;16.60;80.17
65374;SHT31;52070;53.760;9.678;2023-05-10T15:23:07;16.62;78.93
65374;SHT31;52070;53.760;9.678;2023-05-10T15:25:34;16.76;79.78
65374;SHT31;52070;53.760;9.678;2023-05-10T15:28:03;16.97;79.58
65374;SHT31;52070;53.760;9.678;2023-05-10T15:30:31;17.07;79.12
65374;SHT31;52070;53.760;9.678;2023-05-10T15:32:58;17.11;78.19
65374;SHT31;52070;53.760;9.678;2023-05-10T15:35:25;17.04;77.86
65374;SHT31;52070;53.760;9.678;2023-05-10T15:37:52;16.81;77.04
65374;SHT31;52070;53.760;9.678;2023-05-10T15:40:21;16.86;78.44